NCAR-RAP Real-Time Weather Data

Output produced by METARs form (06 May 2021  16:46 UTC)
found at http://weather.rap.ucar.edu/surface/
 
KCQT 061552Z AUTO 00000KT 5SM HZ OVC016 17/12 A3004 RMK AO2 SLP170 T01720122
KCQT 061531Z AUTO 00000KT 5SM HZ OVC015 17/12 A3004 RMK AO2 T01720122
KCQT 061452Z AUTO 00000KT 4SM HZ OVC013 17/12 A3004 RMK AO2 SLP170 T01670122 53019
KCQT 061352Z AUTO 00000KT 4SM HZ OVC011 16/12 A3002 RMK AO2 SLP164 T01610122
KCQT 061252Z AUTO 00000KT 6SM HZ OVC011 16/12 A2999 RMK AO2 SLP154 T01560117
KCQT 061152Z AUTO 00000KT 6SM HZ OVC010 16/12 A2998 RMK AO2 SLP151 T01560117 10156 20150 55004
KCQT 061052Z AUTO 00000KT 7SM OVC010 16/12 A2997 RMK AO2 SLP148 T01560117
KCQT 060952Z AUTO 00000KT 7SM OVC010 16/12 A2998 RMK AO2 SLP150 T01560117
KCQT 060852Z AUTO 00000KT 8SM OVC011 16/12 A2999 RMK AO2 SLP155 T01560117 58006
KCQT 060752Z AUTO 00000KT 10SM OVC011 16/12 A3002 RMK AO2 SLP161 T01560117 402670150
KCQT 060719Z AUTO 00000KT 10SM BKN013 16/12 A3002 RMK AO2 T01560117
KCQT 060652Z AUTO 26003KT 10SM FEW010 16/12 A3002 RMK AO2 SLP163 T01560117
KCQT 060601Z AUTO 00000KT 10SM FEW009 16/12 A3001 RMK AO2 T01560122
KCQT 060552Z AUTO 00000KT 10SM CLR 16/12 A3001 RMK AO2 SLP160 T01560117 10217 20156 51019
KCQT 060452Z AUTO 00000KT 10SM CLR 16/12 A3000 RMK AO2 SLP158 T01560122
KCQT 060352Z AUTO 26005KT 10SM FEW009 16/12 A2998 RMK AO2 SLP149 T01610122